createdAt,value
2019-03-29T17:36:32.387Z,16.67
2019-03-29T17:39:02.852Z,16.27
2019-03-29T17:41:32.918Z,14.90
2019-03-29T17:44:03.287Z,14.67
2019-03-29T17:46:33.375Z,16.10
2019-03-29T17:49:03.471Z,23.50
2019-03-29T17:51:33.952Z,25.20
2019-03-29T17:54:04.003Z,23.67
2019-03-29T17:56:34.110Z,22.27
2019-03-29T17:59:04.583Z,22.20
2019-03-29T18:01:35.351Z,22.87
2019-03-29T18:04:05.475Z,26.40
2019-03-29T18:06:35.457Z,25.13
2019-03-29T18:09:07.641Z,22.30
2019-03-29T18:11:37.720Z,24.27
2019-03-29T18:14:08.094Z,23.80
2019-03-29T18:16:38.560Z,21.20
2019-03-29T18:19:08.606Z,22.23
2019-03-29T18:21:38.642Z,20.43
2019-03-29T18:24:08.711Z,19.80
2019-03-29T18:26:39.112Z,20.10
2019-03-29T18:29:09.194Z,18.57
2019-03-29T18:31:39.714Z,21.03
2019-03-29T18:34:10.919Z,21.77
2019-03-29T18:36:42.359Z,20.60
2019-03-29T18:39:12.842Z,22.07
2019-03-29T18:41:42.882Z,20.83
2019-03-29T18:44:13.362Z,21.43
2019-03-29T18:46:44.910Z,23.83
2019-03-29T18:49:15.174Z,23.60
2019-03-29T18:51:45.354Z,23.40
2019-03-29T18:54:15.813Z,23.20
2019-03-29T18:56:45.847Z,20.47
2019-03-29T18:59:15.894Z,21.07
2019-03-29T19:01:45.959Z,22.23
2019-03-29T19:04:16.376Z,19.20
2019-03-29T19:06:46.426Z,21.77
2019-03-29T19:09:16.501Z,20.93
2019-03-29T19:11:46.764Z,21.90
2019-03-29T19:14:16.776Z,23.10
2019-03-29T19:16:58.274Z,20.47
2019-03-29T19:19:18.619Z,22.93
2019-03-29T19:21:48.994Z,20.47
